createdAt,value
2023-11-15T00:01:21.237Z,10.40
2023-11-15T00:03:50.089Z,10.40
2023-11-15T00:06:18.345Z,10.40
2023-11-15T00:08:46.327Z,10.50
2023-11-15T00:11:19.080Z,10.50
2023-11-15T00:13:51.877Z,10.50
2023-11-15T00:16:19.910Z,10.50
2023-11-15T00:18:47.922Z,10.50
2023-11-15T00:21:15.902Z,10.50
2023-11-15T00:23:43.768Z,10.50
2023-11-15T00:26:11.749Z,10.50
2023-11-15T00:28:40.250Z,10.50
2023-11-15T00:31:10.407Z,10.50
2023-11-15T00:33:38.671Z,10.50
2023-11-15T00:36:09.965Z,10.50
2023-11-15T00:38:37.860Z,10.50
2023-11-15T00:41:07.770Z,10.60
2023-11-15T00:43:35.760Z,10.60
2023-11-15T00:46:04.201Z,10.60
2023-11-15T00:48:33.516Z,10.60
2023-11-15T00:51:01.430Z,10.70
2023-11-15T00:53:29.313Z,10.60
2023-11-15T00:55:57.500Z,10.60
2023-11-15T00:58:29.562Z,10.60
2023-11-15T01:00:58.014Z,10.60
2023-11-15T01:03:28.286Z,10.60
2023-11-15T01:05:58.664Z,10.60
2023-11-15T01:08:26.640Z,10.60
2023-11-15T01:10:55.585Z,10.60
2023-11-15T01:13:24.505Z,10.50
2023-11-15T01:15:52.999Z,10.60
2023-11-15T01:18:22.989Z,10.50
2023-11-15T01:20:52.627Z,10.50
2023-11-15T01:23:22.053Z,10.40
2023-11-15T01:25:49.958Z,10.50
2023-11-15T01:28:18.346Z,10.40
2023-11-15T01:30:46.272Z,10.40
2023-11-15T01:33:14.244Z,10.40
2023-11-15T01:35:42.280Z,10.40
2023-11-15T01:38:10.127Z,10.40
2023-11-15T01:40:39.387Z,10.50
2023-11-15T01:43:08.135Z,10.50
2023-11-15T01:45:37.100Z,10.50
2023-11-15T01:48:05.872Z,10.50
2023-11-15T01:50:34.530Z,10.50
2023-11-15T01:53:02.429Z,10.50
2023-11-15T01:55:32.621Z,10.50
2023-11-15T01:58:03.075Z,10.40
2023-11-15T02:00:31.177Z,10.50
2023-11-15T02:02:59.146Z,10.40
2023-11-15T02:05:27.836Z,10.40
2023-11-15T02:07:56.301Z,10.40
2023-11-15T02:10:25.373Z,10.40
2023-11-15T02:12:53.390Z,10.30
2023-11-15T02:15:23.174Z,10.40
2023-11-15T02:17:51.165Z,10.40
2023-11-15T02:20:19.472Z,10.40
2023-11-15T02:22:48.638Z,10.40
2023-11-15T02:25:18.671Z,10.50
2023-11-15T02:27:46.647Z,10.40
2023-11-15T02:30:15.424Z,10.40
2023-11-15T02:32:44.880Z,10.40
2023-11-15T02:35:12.924Z,10.30
2023-11-15T02:37:40.811Z,10.30
2023-11-15T02:40:11.707Z,10.30
2023-11-15T02:42:41.373Z,10.30
2023-11-15T02:45:09.738Z,10.30
2023-11-15T02:47:37.791Z,10.30
2023-11-15T02:50:06.359Z,10.20
2023-11-15T02:52:36.858Z,10.20
2023-11-15T02:55:05.061Z,10.20
2023-11-15T02:57:32.996Z,10.30
2023-11-15T03:00:02.376Z,10.30
2023-11-15T03:02:31.059Z,10.20
2023-11-15T03:04:59.014Z,10.20
2023-11-15T03:07:26.883Z,10.30
2023-11-15T03:09:54.715Z,10.30
2023-11-15T03:12:22.654Z,10.30
2023-11-15T03:14:50.594Z,10.40
2023-11-15T03:17:20.957Z,10.40
2023-11-15T03:19:48.951Z,10.40
2023-11-15T03:22:17.026Z,10.40
2023-11-15T03:24:46.420Z,10.40
2023-11-15T03:27:14.625Z,10.40
2023-11-15T03:29:42.545Z,10.40
2023-11-15T03:32:10.431Z,10.30
2023-11-15T03:34:42.969Z,10.40
2023-11-15T03:37:11.336Z,10.40
2023-11-15T03:39:39.983Z,10.40
2023-11-15T03:42:08.614Z,10.30
2023-11-15T03:44:36.488Z,10.30
2023-11-15T03:47:04.847Z,10.30
2023-11-15T03:49:32.773Z,10.30
2023-11-15T03:52:02.022Z,10.30
2023-11-15T03:54:29.860Z,10.30
2023-11-15T03:56:57.727Z,10.30
2023-11-15T03:59:25.867Z,10.30
2023-11-15T04:01:57.358Z,10.30
2023-11-15T04:04:26.563Z,10.40
2023-11-15T04:06:54.781Z,10.30
2023-11-15T04:09:23.989Z,10.40
2023-11-15T04:11:51.926Z,10.40
2023-11-15T04:14:21.775Z,10.40
2023-11-15T04:16:49.630Z,10.40
2023-11-15T04:19:18.515Z,10.40
2023-11-15T04:21:46.846Z,10.50
2023-11-15T04:24:14.762Z,10.50
2023-11-15T04:26:43.992Z,10.50
2023-11-15T04:29:11.897Z,10.60
2023-11-15T04:31:39.979Z,10.60
2023-11-15T04:34:08.205Z,10.50
2023-11-15T04:36:36.724Z,10.40
2023-11-15T04:39:08.400Z,10.40
2023-11-15T04:41:38.476Z,10.30
2023-11-15T04:44:07.972Z,10.30
2023-11-15T04:46:36.208Z,10.20
2023-11-15T04:49:05.692Z,10.20
2023-11-15T04:51:33.542Z,10.20
2023-11-15T04:54:02.012Z,10.30
2023-11-15T04:56:30.109Z,10.30
2023-11-15T04:58:58.064Z,10.30
2023-11-15T05:01:27.282Z,10.30
2023-11-15T05:03:55.291Z,10.30
2023-11-15T05:06:23.230Z,10.30
2023-11-15T05:08:51.296Z,10.30
2023-11-15T05:11:19.284Z,10.30
2023-11-15T05:13:47.271Z,10.30
2023-11-15T05:16:15.221Z,10.20
2023-11-15T05:18:44.456Z,10.20
2023-11-15T05:21:12.385Z,10.20
2023-11-15T05:23:41.033Z,10.20
2023-11-15T05:26:10.407Z,10.10
2023-11-15T05:28:38.325Z,10.10
2023-11-15T05:31:06.353Z,10.10
2023-11-15T05:33:34.360Z,10.10
2023-11-15T05:36:03.745Z,10.10
2023-11-15T05:38:31.681Z,10.20
2023-11-15T05:40:59.599Z,10.20
2023-11-15T05:43:27.492Z,10.20
2023-11-15T05:45:55.353Z,10.20
2023-11-15T05:48:23.477Z,10.20
2023-11-15T05:50:53.478Z,10.20
2023-11-15T05:53:23.867Z,10.20
2023-11-15T05:55:52.235Z,10.20
2023-11-15T05:58:20.763Z,10.20
2023-11-15T06:00:49.201Z,10.30
2023-11-15T06:03:17.155Z,10.20
2023-11-15T06:05:45.100Z,10.30
2023-11-15T06:08:12.973Z,10.30
2023-11-15T06:10:42.148Z,10.30
2023-11-15T06:13:10.007Z,10.30
2023-11-15T06:15:38.374Z,10.30
2023-11-15T06:18:07.809Z,10.30
2023-11-15T06:20:36.081Z,10.30
2023-11-15T06:23:04.087Z,10.20
2023-11-15T06:25:33.359Z,10.20
2023-11-15T06:28:04.278Z,10.20
2023-11-15T06:30:32.253Z,10.20
2023-11-15T06:33:00.712Z,10.20
2023-11-15T06:35:28.782Z,10.10
2023-11-15T06:37:56.674Z,10.10
2023-11-15T06:40:24.647Z,10.10
2023-11-15T06:42:52.582Z,10.10
2023-11-15T06:45:21.936Z,10.10
2023-11-15T06:47:52.221Z,10.20
2023-11-15T06:50:20.718Z,10.20
2023-11-15T06:52:48.578Z,10.10
2023-11-15T06:55:16.641Z,10.00
2023-11-15T06:57:45.553Z,10.00
2023-11-15T07:00:14.755Z,10.00
2023-11-15T07:02:44.218Z,10.00
2023-11-15T07:05:12.499Z,9.90
2023-11-15T07:07:40.996Z,9.90
2023-11-15T07:10:10.778Z,9.80
2023-11-15T07:12:39.432Z,9.90
2023-11-15T07:15:09.087Z,9.80
2023-11-15T07:17:37.216Z,9.90
2023-11-15T07:20:10.985Z,10.00
2023-11-15T07:22:39.725Z,10.00
2023-11-15T07:25:09.023Z,10.00
2023-11-15T07:27:37.703Z,10.10
2023-11-15T07:30:09.098Z,10.30
2023-11-15T07:32:37.340Z,10.40
2023-11-15T07:35:07.294Z,10.50
2023-11-15T07:37:35.583Z,10.40
2023-11-15T07:40:04.270Z,10.40
2023-11-15T07:42:33.564Z,10.40
2023-11-15T07:45:03.476Z,10.40
2023-11-15T07:47:35.226Z,10.50
2023-11-15T07:50:04.322Z,10.50
2023-11-15T07:52:33.757Z,10.60
2023-11-15T07:55:03.157Z,10.80
2023-11-15T07:57:31.066Z,11.00
2023-11-15T07:59:59.041Z,11.10
2023-11-15T08:02:27.440Z,11.20
2023-11-15T08:04:55.547Z,11.00
2023-11-15T08:07:23.513Z,11.00
2023-11-15T08:09:52.701Z,10.90
2023-11-15T08:12:20.741Z,10.70
2023-11-15T08:14:48.618Z,10.60
2023-11-15T08:17:16.521Z,10.50
2023-11-15T08:19:47.993Z,10.60
2023-11-15T08:22:17.983Z,10.60
2023-11-15T08:24:48.158Z,10.60
2023-11-15T08:27:18.702Z,10.60
2023-11-15T08:29:47.364Z,10.80
2023-11-15T08:32:16.947Z,11.20
2023-11-15T08:34:45.828Z,11.50
2023-11-15T08:37:14.357Z,11.80
2023-11-15T08:39:43.445Z,12.10
2023-11-15T08:42:11.318Z,12.40
2023-11-15T08:44:42.795Z,12.70
2023-11-15T08:47:10.975Z,12.90
2023-11-15T08:49:39.545Z,13.00
2023-11-15T08:52:07.749Z,12.70
2023-11-15T08:54:38.328Z,12.40
2023-11-15T08:57:07.280Z,12.20
2023-11-15T08:59:36.837Z,12.20
2023-11-15T09:02:06.746Z,12.40
2023-11-15T09:04:35.450Z,12.50
2023-11-15T09:07:03.316Z,12.90
2023-11-15T09:09:31.732Z,13.20
2023-11-15T09:11:59.674Z,13.50
2023-11-15T09:14:29.061Z,13.80
2023-11-15T09:16:59.388Z,14.00
2023-11-15T09:19:29.864Z,14.20
2023-11-15T09:21:57.802Z,14.50
2023-11-15T09:24:27.566Z,14.70
2023-11-15T09:26:56.115Z,14.60
2023-11-15T09:29:24.077Z,14.80
2023-11-15T09:31:53.319Z,14.90
2023-11-15T09:34:21.641Z,14.90
2023-11-15T09:36:51.550Z,14.90
2023-11-15T09:39:19.731Z,14.90
2023-11-15T09:41:54.288Z,14.80
2023-11-15T09:44:25.196Z,14.70
2023-11-15T09:46:55.184Z,14.80
2023-11-15T09:49:25.746Z,14.80
2023-11-15T09:51:55.264Z,14.50
2023-11-15T09:54:24.567Z,14.50
2023-11-15T09:56:53.077Z,14.80
2023-11-15T09:59:21.218Z,14.90
2023-11-15T10:01:50.796Z,15.10
2023-11-15T10:04:23.306Z,15.60
2023-11-15T10:06:52.993Z,15.20
2023-11-15T10:09:37.841Z,14.70
2023-11-15T10:12:07.190Z,14.30
2023-11-15T10:14:37.408Z,13.80
2023-11-15T10:17:07.526Z,13.50
2023-11-15T10:19:35.668Z,13.30
2023-11-15T10:22:06.358Z,13.10
2023-11-15T10:24:37.480Z,13.10
2023-11-15T10:27:09.125Z,13.30
2023-11-15T10:29:38.604Z,13.20
2023-11-15T10:32:07.474Z,13.10
2023-11-15T10:34:36.293Z,13.10
2023-11-15T10:37:08.402Z,13.20
2023-11-15T10:39:42.009Z,13.20
2023-11-15T10:42:13.581Z,13.00
2023-11-15T10:44:42.877Z,12.80
2023-11-15T10:47:11.644Z,12.80
2023-11-15T10:49:44.662Z,12.80
2023-11-15T10:52:14.997Z,12.90
2023-11-15T10:54:44.997Z,12.90
2023-11-15T10:57:16.442Z,13.00
2023-11-15T10:59:49.023Z,13.10
2023-11-15T11:02:18.671Z,13.00
2023-11-15T11:04:48.670Z,13.00
2023-11-15T11:07:25.791Z,13.10
2023-11-15T11:10:04.118Z,13.50
2023-11-15T11:12:32.957Z,14.00
2023-11-15T11:15:26.171Z,14.10
2023-11-15T11:18:05.022Z,14.30
2023-11-15T11:20:35.584Z,14.50
2023-11-15T11:23:12.857Z,14.60
2023-11-15T11:25:42.161Z,14.70
2023-11-15T11:28:13.352Z,15.10
2023-11-15T11:30:42.000Z,15.30
2023-11-15T11:33:16.761Z,15.40
2023-11-15T11:35:47.082Z,15.50
2023-11-15T11:38:43.180Z,15.40
2023-11-15T11:41:13.854Z,15.50
2023-11-15T11:43:43.212Z,15.60
2023-11-15T11:46:16.907Z,15.40
2023-11-15T11:48:45.071Z,15.10
2023-11-15T11:51:13.317Z,14.70
2023-11-15T11:53:43.703Z,14.40
2023-11-15T11:56:14.906Z,14.20
2023-11-15T11:58:44.427Z,14.00
2023-11-15T12:01:13.209Z,13.90
2023-11-15T12:03:48.723Z,13.80
2023-11-15T12:06:18.902Z,14.00
2023-11-15T12:08:52.041Z,14.20
2023-11-15T12:11:24.159Z,14.40
2023-11-15T12:13:54.004Z,14.40
2023-11-15T12:16:24.036Z,14.30
2023-11-15T12:19:04.235Z,14.20
2023-11-15T12:21:34.199Z,14.00
2023-11-15T12:24:06.010Z,14.00
2023-11-15T12:26:45.591Z,14.00
2023-11-15T12:29:19.786Z,14.00
2023-11-15T12:31:48.896Z,14.30
2023-11-15T12:34:17.997Z,14.30
2023-11-15T12:36:47.692Z,14.30
2023-11-15T12:39:17.456Z,14.20
2023-11-15T12:41:48.614Z,14.00
2023-11-15T12:44:17.781Z,13.80
2023-11-15T12:46:46.212Z,13.70
2023-11-15T12:49:16.150Z,13.60
2023-11-15T12:51:48.157Z,13.60
2023-11-15T12:54:16.316Z,13.50
2023-11-15T12:56:44.483Z,13.40
2023-11-15T12:59:18.205Z,13.40
2023-11-15T13:01:47.112Z,13.30
2023-11-15T13:04:16.739Z,13.40
2023-11-15T13:06:45.413Z,13.50
2023-11-15T13:09:16.540Z,13.40
2023-11-15T13:11:45.452Z,13.40
2023-11-15T13:14:19.515Z,13.30
2023-11-15T13:16:47.397Z,13.10
2023-11-15T13:19:15.529Z,13.00
2023-11-15T13:21:46.032Z,12.70
2023-11-15T13:24:14.000Z,12.60
2023-11-15T13:26:41.879Z,12.30
2023-11-15T13:29:10.012Z,12.00
2023-11-15T13:31:39.251Z,11.60
2023-11-15T13:34:07.266Z,11.20
2023-11-15T13:36:35.898Z,11.10
2023-11-15T13:39:06.392Z,10.90
2023-11-15T13:41:34.254Z,10.80
2023-11-15T13:44:02.107Z,10.70
2023-11-15T13:46:30.520Z,10.70
2023-11-15T13:49:04.713Z,10.70
2023-11-15T13:51:33.085Z,10.80
2023-11-15T13:54:01.131Z,10.90
2023-11-15T13:56:29.165Z,11.00
2023-11-15T13:58:57.435Z,11.00
2023-11-15T14:01:25.283Z,10.90
2023-11-15T14:03:54.454Z,10.90
2023-11-15T14:06:23.968Z,10.90
2023-11-15T14:08:58.473Z,11.00
2023-11-15T14:11:29.973Z,11.00
2023-11-15T14:13:58.284Z,11.00
2023-11-15T14:16:26.750Z,11.00
2023-11-15T14:18:55.868Z,11.10
2023-11-15T14:21:25.702Z,11.10
2023-11-15T14:23:53.832Z,11.10
2023-11-15T14:26:21.829Z,11.20
2023-11-15T14:28:50.987Z,11.30
2023-11-15T14:31:19.308Z,11.20
2023-11-15T14:33:47.384Z,11.20
2023-11-15T14:36:17.719Z,11.20
2023-11-15T14:38:49.762Z,11.10
2023-11-15T14:41:18.753Z,11.10
2023-11-15T14:43:47.006Z,11.10
2023-11-15T14:46:16.561Z,11.10
2023-11-15T14:48:44.618Z,11.10
2023-11-15T14:51:13.234Z,11.10
2023-11-15T14:53:53.470Z,11.00
2023-11-15T14:56:23.611Z,10.90
2023-11-15T14:58:54.607Z,10.90
2023-11-15T15:01:25.131Z,10.90
2023-11-15T15:03:54.233Z,10.90
2023-11-15T15:06:23.157Z,10.80
2023-11-15T15:08:51.167Z,10.70
2023-11-15T15:11:19.068Z,10.80
2023-11-15T15:13:47.359Z,10.70
2023-11-15T15:16:17.624Z,10.70
2023-11-15T15:18:45.763Z,10.60
2023-11-15T15:21:15.836Z,10.70
2023-11-15T15:23:44.703Z,10.60
2023-11-15T15:26:14.007Z,10.50
2023-11-15T15:28:41.944Z,10.50
2023-11-15T15:31:11.180Z,10.50
2023-11-15T15:33:39.180Z,10.50
2023-11-15T15:36:10.223Z,10.40
2023-11-15T15:38:38.177Z,10.40
2023-11-15T15:41:06.896Z,10.40
2023-11-15T15:43:35.935Z,10.40
2023-11-15T15:46:03.875Z,10.40
2023-11-15T15:48:33.222Z,10.30
2023-11-15T15:51:01.191Z,10.40
2023-11-15T15:53:29.085Z,10.40
2023-11-15T15:55:58.019Z,10.40
2023-11-15T15:58:25.890Z,10.40
2023-11-15T16:00:53.982Z,10.40
2023-11-15T16:03:21.961Z,10.40
2023-11-15T16:05:51.404Z,10.40
2023-11-15T16:08:19.289Z,10.40
2023-11-15T16:10:47.188Z,10.40
2023-11-15T16:13:15.084Z,10.30
2023-11-15T16:15:42.924Z,10.20
2023-11-15T16:18:10.839Z,10.00
2023-11-15T16:20:39.886Z,10.00
2023-11-15T16:23:10.144Z,9.90
2023-11-15T16:25:39.005Z,9.80
2023-11-15T16:28:07.713Z,9.70
2023-11-15T16:30:35.667Z,9.60
2023-11-15T16:33:03.799Z,9.70
2023-11-15T16:35:31.800Z,9.70
2023-11-15T16:37:59.746Z,9.70
2023-11-15T16:40:28.922Z,9.60
2023-11-15T16:42:56.791Z,9.60
2023-11-15T16:45:27.595Z,9.60
2023-11-15T16:47:56.914Z,9.50
2023-11-15T16:50:24.812Z,9.50
2023-11-15T16:52:52.701Z,9.50
2023-11-15T16:55:20.540Z,9.50
2023-11-15T16:57:49.859Z,9.50
2023-11-15T17:00:21.310Z,9.50
2023-11-15T17:02:50.613Z,9.50
2023-11-15T17:05:20.906Z,9.50
2023-11-15T17:07:48.755Z,9.50
2023-11-15T17:10:16.602Z,9.50
2023-11-15T17:12:44.451Z,9.50
2023-11-15T17:15:13.793Z,9.50
2023-11-15T17:17:42.501Z,9.50
2023-11-15T17:20:12.146Z,9.50
2023-11-15T17:22:39.995Z,9.60
2023-11-15T17:25:19.063Z,9.50
2023-11-15T17:27:48.159Z,9.50
2023-11-15T17:30:17.648Z,9.50
2023-11-15T17:32:45.525Z,9.60
2023-11-15T17:35:13.496Z,9.60
2023-11-15T17:37:44.068Z,9.60
2023-11-15T17:40:13.908Z,9.70
2023-11-15T17:42:42.626Z,9.70
2023-11-15T17:45:12.584Z,9.80
2023-11-15T17:47:42.777Z,9.80
2023-11-15T17:50:11.358Z,9.80
2023-11-15T17:52:41.501Z,9.70
2023-11-15T17:55:12.424Z,9.70
2023-11-15T17:57:40.254Z,9.60
2023-11-15T18:00:11.153Z,9.60
2023-11-15T18:02:42.186Z,9.50
2023-11-15T18:05:13.476Z,9.60
2023-11-15T18:07:41.600Z,9.50
2023-11-15T18:10:13.863Z,9.50
2023-11-15T18:12:42.138Z,9.60
2023-11-15T18:15:11.143Z,9.50
2023-11-15T18:17:39.241Z,9.50
2023-11-15T18:20:12.060Z,9.50
2023-11-15T18:22:41.764Z,9.50
2023-11-15T18:25:11.445Z,9.50
2023-11-15T18:27:39.735Z,9.50
2023-11-15T18:30:11.018Z,9.50
2023-11-15T18:32:40.005Z,9.60
2023-11-15T18:35:08.764Z,9.60
2023-11-15T18:37:37.453Z,9.50
2023-11-15T18:40:12.665Z,9.50
2023-11-15T18:42:40.955Z,9.60
2023-11-15T18:45:11.899Z,9.50
2023-11-15T18:47:41.583Z,9.50
2023-11-15T18:50:12.070Z,9.50
2023-11-15T18:52:41.892Z,9.50
2023-11-15T18:55:13.560Z,9.60
2023-11-15T18:57:42.585Z,9.50
2023-11-15T19:00:14.300Z,9.60
2023-11-15T19:02:45.984Z,9.60
2023-11-15T19:05:17.113Z,9.50
2023-11-15T19:07:45.503Z,9.50
2023-11-15T19:10:17.816Z,9.60
2023-11-15T19:12:46.485Z,9.60
2023-11-15T19:15:14.497Z,9.60
2023-11-15T19:17:49.611Z,9.60
2023-11-15T19:20:19.466Z,9.60
2023-11-15T19:22:48.080Z,9.70
2023-11-15T19:25:17.312Z,9.70
2023-11-15T19:27:46.438Z,9.60
2023-11-15T19:30:14.493Z,9.60
2023-11-15T19:32:42.573Z,9.60
2023-11-15T19:35:11.889Z,9.70
2023-11-15T19:37:40.009Z,9.60
2023-11-15T19:40:10.683Z,9.60
2023-11-15T19:42:40.462Z,9.60
2023-11-15T19:45:12.385Z,9.70
2023-11-15T19:47:41.568Z,9.80
2023-11-15T19:50:10.008Z,9.80
2023-11-15T19:52:38.178Z,9.80
2023-11-15T19:55:09.355Z,9.80
2023-11-15T19:57:38.132Z,9.70
2023-11-15T20:00:12.772Z,9.70
2023-11-15T20:02:46.483Z,9.70
2023-11-15T20:05:16.454Z,9.70
2023-11-15T20:07:44.413Z,9.70
2023-11-15T20:10:12.449Z,9.80
2023-11-15T20:12:41.862Z,9.80
2023-11-15T20:15:12.313Z,9.80
2023-11-15T20:17:40.557Z,9.70
2023-11-15T20:20:09.621Z,9.70
2023-11-15T20:22:45.460Z,9.70
2023-11-15T20:25:19.516Z,9.70
2023-11-15T20:27:47.649Z,9.60
2023-11-15T20:30:18.505Z,9.70
2023-11-15T20:32:47.959Z,9.70
2023-11-15T20:35:16.533Z,9.70
2023-11-15T20:37:44.675Z,9.60
2023-11-15T20:40:16.317Z,9.50
2023-11-15T20:42:47.906Z,9.40
2023-11-15T20:45:17.751Z,9.40
2023-11-15T20:47:46.092Z,9.50
2023-11-15T20:50:14.426Z,9.40
2023-11-15T20:52:42.619Z,9.40
2023-11-15T20:55:11.208Z,9.50
2023-11-15T20:57:39.790Z,9.40
2023-11-15T21:00:13.994Z,9.50
2023-11-15T21:02:43.428Z,9.50
2023-11-15T21:05:12.830Z,9.50
2023-11-15T21:07:41.122Z,9.50
2023-11-15T21:10:10.544Z,9.50
2023-11-15T21:12:39.246Z,9.50
2023-11-15T21:15:10.534Z,9.50
2023-11-15T21:17:38.678Z,9.50
2023-11-15T21:20:12.608Z,9.60
2023-11-15T21:22:41.277Z,9.60
2023-11-15T21:25:12.460Z,9.70
2023-11-15T21:27:41.702Z,9.60
2023-11-15T21:30:12.079Z,9.70
2023-11-15T21:32:41.297Z,9.70
2023-11-15T21:35:12.114Z,9.80
2023-11-15T21:37:44.155Z,9.80
2023-11-15T21:40:15.922Z,9.90
2023-11-15T21:42:45.411Z,9.80
2023-11-15T21:45:14.490Z,9.90
2023-11-15T21:47:44.111Z,9.90
2023-11-15T21:50:16.600Z,10.40
2023-11-15T21:52:44.964Z,11.70
2023-11-15T21:55:13.431Z,12.20
2023-11-15T21:57:41.965Z,12.70
2023-11-15T22:00:14.055Z,13.00
2023-11-15T22:02:42.065Z,13.20
2023-11-15T22:05:10.628Z,13.40
2023-11-15T22:07:40.458Z,13.50
2023-11-15T22:10:10.294Z,13.50
2023-11-15T22:12:38.373Z,13.50
2023-11-15T22:15:08.275Z,13.40
2023-11-15T22:17:37.291Z,13.30
2023-11-15T22:20:05.843Z,13.30
2023-11-15T22:22:33.715Z,13.50
2023-11-15T22:25:02.912Z,13.80
2023-11-15T22:27:31.089Z,14.00
2023-11-15T22:29:59.157Z,13.80
2023-11-15T22:32:28.121Z,13.10
2023-11-15T22:34:56.679Z,12.50
2023-11-15T22:37:24.524Z,12.00
2023-11-15T22:39:52.863Z,11.70
2023-11-15T22:42:22.120Z,11.40
2023-11-15T22:44:50.120Z,11.10
2023-11-15T22:47:17.942Z,10.80
2023-11-15T22:49:53.910Z,10.60
2023-11-15T22:52:21.835Z,10.20
2023-11-15T22:54:49.687Z,10.10
2023-11-15T22:57:17.537Z,10.00
2023-11-15T22:59:46.598Z,9.90
2023-11-15T23:02:15.485Z,9.80
2023-11-15T23:04:44.273Z,9.80
2023-11-15T23:07:13.622Z,9.80
2023-11-15T23:09:41.533Z,9.60
2023-11-15T23:12:09.639Z,9.50
2023-11-15T23:14:37.526Z,9.40
2023-11-15T23:17:06.540Z,9.30
2023-11-15T23:19:34.499Z,9.10
2023-11-15T23:22:04.567Z,9.10
2023-11-15T23:24:35.174Z,9.20
2023-11-15T23:27:03.108Z,9.10
2023-11-15T23:29:31.398Z,9.10
2023-11-15T23:32:01.001Z,9.00
2023-11-15T23:34:28.998Z,8.90
2023-11-15T23:36:57.155Z,8.90
2023-11-15T23:39:25.744Z,8.80
2023-11-15T23:41:55.004Z,8.80
2023-11-15T23:44:22.920Z,8.60
2023-11-15T23:46:52.573Z,8.60
2023-11-15T23:49:20.892Z,8.50
2023-11-15T23:51:48.757Z,8.60
2023-11-15T23:54:16.764Z,8.70
2023-11-15T23:56:44.816Z,8.70
2023-11-15T23:59:14.024Z,8.70
